createdAt,value
2023-02-26T00:01:31.112Z,43.97
2023-02-26T00:04:01.012Z,43.82
2023-02-26T00:06:29.774Z,44.24
2023-02-26T00:08:57.334Z,44.20
2023-02-26T00:11:25.145Z,43.50
2023-02-26T00:13:54.332Z,43.61
2023-02-26T00:16:28.705Z,43.63
2023-02-26T00:18:57.054Z,43.06
2023-02-26T00:21:26.482Z,43.26
2023-02-26T00:23:54.532Z,43.96
2023-02-26T00:26:23.735Z,43.64
2023-02-26T00:28:53.272Z,43.11
2023-02-26T00:31:24.688Z,43.66
2023-02-26T00:33:53.938Z,43.24
2023-02-26T00:36:25.436Z,43.39
2023-02-26T00:39:09.908Z,43.65
2023-02-26T00:41:38.821Z,43.19
2023-02-26T00:44:07.916Z,43.54
2023-02-26T00:46:46.392Z,42.98
2023-02-26T00:49:27.412Z,42.86
2023-02-26T00:51:58.232Z,43.46
2023-02-26T00:54:28.077Z,43.87
2023-02-26T00:56:57.679Z,43.60
2023-02-26T00:59:26.487Z,43.44
2023-02-26T01:01:54.100Z,43.49
2023-02-26T01:04:24.593Z,43.13
2023-02-26T01:06:57.833Z,43.06
2023-02-26T01:09:27.857Z,43.70
2023-02-26T01:12:00.957Z,43.60
2023-02-26T01:14:32.281Z,44.02
2023-02-26T01:17:08.114Z,43.78
2023-02-26T01:19:45.379Z,44.54
2023-02-26T01:22:21.266Z,44.23
2023-02-26T01:24:54.448Z,44.03
2023-02-26T01:27:21.975Z,44.19
2023-02-26T01:29:51.000Z,44.18
2023-02-26T01:32:25.381Z,43.49
2023-02-26T01:35:02.168Z,43.90
2023-02-26T01:37:41.489Z,44.02
2023-02-26T01:40:36.178Z,44.37
2023-02-26T01:43:12.759Z,43.78
2023-02-26T01:45:58.220Z,44.13
2023-02-26T01:48:37.757Z,44.03
2023-02-26T01:51:05.595Z,44.92
2023-02-26T01:53:32.574Z,44.34
2023-02-26T01:56:06.392Z,44.02
2023-02-26T01:58:36.808Z,44.15
2023-02-26T02:01:06.270Z,44.76
2023-02-26T02:03:38.158Z,44.63
2023-02-26T02:06:09.263Z,44.54
2023-02-26T02:08:36.482Z,44.53
2023-02-26T02:11:08.499Z,44.23
2023-02-26T02:13:57.893Z,44.55
2023-02-26T02:16:40.278Z,44.34
2023-02-26T02:19:33.706Z,45.20
2023-02-26T02:22:40.304Z,44.80
2023-02-26T02:25:32.496Z,44.59
2023-02-26T02:28:14.149Z,44.80
2023-02-26T02:31:02.228Z,44.49
2023-02-26T02:33:37.363Z,45.35
2023-02-26T02:36:15.250Z,45.49
2023-02-26T02:38:49.572Z,45.34
2023-02-26T02:41:25.696Z,44.71
2023-02-26T02:43:55.164Z,45.73
2023-02-26T02:46:28.772Z,45.27
2023-02-26T02:49:03.295Z,45.81
2023-02-26T02:51:34.237Z,45.87
2023-02-26T02:54:10.413Z,45.46
2023-02-26T02:56:46.613Z,45.55
2023-02-26T02:59:22.167Z,45.59
2023-02-26T03:01:59.880Z,45.46
2023-02-26T03:04:26.913Z,45.50
2023-02-26T03:06:53.834Z,46.25
2023-02-26T03:09:20.838Z,45.51
2023-02-26T03:11:47.795Z,45.97
2023-02-26T03:14:15.760Z,45.60
2023-02-26T03:17:02.977Z,45.88
2023-02-26T03:19:38.406Z,45.68
2023-02-26T03:22:11.075Z,46.02
2023-02-26T03:24:48.538Z,46.39
2023-02-26T03:27:29.534Z,46.00
2023-02-26T03:30:02.260Z,45.23
2023-02-26T03:32:42.252Z,45.85
2023-02-26T03:35:15.859Z,45.12
2023-02-26T03:37:48.092Z,46.44
2023-02-26T03:40:22.075Z,46.39
2023-02-26T03:42:55.239Z,46.53
2023-02-26T03:45:29.000Z,45.98
2023-02-26T03:48:01.060Z,45.54
2023-02-26T03:50:35.797Z,45.41
2023-02-26T03:53:07.893Z,46.71
2023-02-26T03:55:41.533Z,45.52
2023-02-26T03:58:08.466Z,46.53
2023-02-26T04:00:43.139Z,45.46
2023-02-26T04:03:18.643Z,46.33
2023-02-26T04:05:50.752Z,46.04
2023-02-26T04:08:18.300Z,45.97
2023-02-26T04:10:54.205Z,46.00
2023-02-26T04:13:21.856Z,45.61
2023-02-26T04:15:48.857Z,46.47
2023-02-26T04:18:17.304Z,46.63
2023-02-26T04:20:44.214Z,46.48
2023-02-26T04:23:11.362Z,46.40
2023-02-26T04:25:38.427Z,45.91
2023-02-26T04:28:05.332Z,46.70
2023-02-26T04:30:32.636Z,45.82
2023-02-26T04:32:59.559Z,45.78
2023-02-26T04:35:27.985Z,46.20
2023-02-26T04:37:54.964Z,46.82
2023-02-26T04:40:23.900Z,46.86
2023-02-26T04:42:51.644Z,46.49
2023-02-26T04:45:18.574Z,47.03
2023-02-26T04:47:45.499Z,46.62
2023-02-26T04:50:12.427Z,46.10
2023-02-26T04:52:40.735Z,46.16
2023-02-26T04:55:08.994Z,46.61
2023-02-26T04:57:35.953Z,47.16
2023-02-26T05:00:07.153Z,47.01
2023-02-26T05:02:34.440Z,45.95
2023-02-26T05:05:01.797Z,46.32
2023-02-26T05:07:29.038Z,45.82
2023-02-26T05:09:57.317Z,46.21
2023-02-26T05:12:24.819Z,46.23
2023-02-26T05:14:51.766Z,46.00
2023-02-26T05:17:18.739Z,46.23
2023-02-26T05:19:45.649Z,46.63
2023-02-26T05:22:12.649Z,46.47
2023-02-26T05:24:39.604Z,46.43
2023-02-26T05:27:07.867Z,46.18
2023-02-26T05:29:34.858Z,46.25
2023-02-26T05:32:02.644Z,46.62
2023-02-26T05:34:30.003Z,45.93
2023-02-26T05:36:56.960Z,46.59
2023-02-26T05:39:23.888Z,46.21
2023-02-26T05:41:51.907Z,45.88
2023-02-26T05:44:20.237Z,46.54
2023-02-26T05:46:47.302Z,45.82
2023-02-26T05:49:14.187Z,46.78
2023-02-26T05:51:42.708Z,45.91
2023-02-26T05:54:10.153Z,46.73
2023-02-26T05:56:37.276Z,46.70
2023-02-26T05:59:04.550Z,45.62
2023-02-26T06:01:32.980Z,45.80
2023-02-26T06:04:00.948Z,46.19
2023-02-26T06:06:28.008Z,45.71
2023-02-26T06:08:55.210Z,46.64
2023-02-26T06:11:22.499Z,46.56
2023-02-26T06:13:49.758Z,46.34
2023-02-26T06:16:16.724Z,46.49
2023-02-26T06:18:44.985Z,45.37
2023-02-26T06:21:11.992Z,45.99
2023-02-26T06:23:39.033Z,45.86
2023-02-26T06:26:06.429Z,45.85
2023-02-26T06:28:33.530Z,46.22
2023-02-26T06:31:00.732Z,45.53
2023-02-26T06:33:27.918Z,46.41
2023-02-26T06:35:57.911Z,45.67
2023-02-26T06:38:24.896Z,45.50
2023-02-26T06:40:51.853Z,45.54
2023-02-26T06:43:18.736Z,45.63
2023-02-26T06:45:46.233Z,46.23
2023-02-26T06:48:13.711Z,45.12
2023-02-26T06:50:40.655Z,45.92
2023-02-26T06:53:09.284Z,45.71
2023-02-26T06:55:36.817Z,46.13
2023-02-26T06:58:03.753Z,45.07
2023-02-26T07:00:30.778Z,45.67
2023-02-26T07:02:58.273Z,45.26
2023-02-26T07:05:25.230Z,45.47
2023-02-26T07:07:52.190Z,45.54
2023-02-26T07:10:21.497Z,45.08
2023-02-26T07:12:48.659Z,44.45
2023-02-26T07:15:15.758Z,44.73
2023-02-26T07:17:42.690Z,45.05
2023-02-26T07:20:12.179Z,45.24
2023-02-26T07:22:39.141Z,44.88
2023-02-26T07:25:07.514Z,44.80
2023-02-26T07:27:36.382Z,44.64
2023-02-26T07:30:06.108Z,43.89
2023-02-26T07:32:33.562Z,42.92
2023-02-26T07:35:00.470Z,43.06
2023-02-26T07:37:29.029Z,42.87
2023-02-26T07:39:56.015Z,42.41
2023-02-26T07:42:22.967Z,42.22
2023-02-26T07:44:51.277Z,41.40
2023-02-26T07:47:18.400Z,40.89
2023-02-26T07:49:45.352Z,40.49
2023-02-26T07:52:12.319Z,39.46
2023-02-26T07:54:39.268Z,39.78
2023-02-26T07:57:06.253Z,39.29
2023-02-26T07:59:33.202Z,39.13
2023-02-26T08:02:01.545Z,39.12
2023-02-26T08:04:28.666Z,38.54
2023-02-26T08:06:57.175Z,38.40
2023-02-26T08:09:24.173Z,38.33
2023-02-26T08:11:51.147Z,38.98
2023-02-26T08:14:18.118Z,38.31
2023-02-26T08:16:45.412Z,37.67
2023-02-26T08:19:13.740Z,37.43
2023-02-26T08:21:40.893Z,36.72
2023-02-26T08:24:07.948Z,35.96
2023-02-26T08:26:37.164Z,35.69
2023-02-26T08:29:05.049Z,35.41
2023-02-26T08:31:32.348Z,35.12
2023-02-26T08:33:59.385Z,34.97
2023-02-26T08:36:28.022Z,34.60
2023-02-26T08:38:55.258Z,34.42
2023-02-26T08:41:23.129Z,34.43
2023-02-26T08:43:51.268Z,34.76
2023-02-26T08:46:18.251Z,35.27
2023-02-26T08:48:45.204Z,35.25
2023-02-26T08:51:12.263Z,35.53
2023-02-26T08:53:40.558Z,35.16
2023-02-26T08:56:07.865Z,34.93
2023-02-26T08:58:34.791Z,34.56
2023-02-26T09:01:01.743Z,33.49
2023-02-26T09:03:28.690Z,32.99
2023-02-26T09:05:55.671Z,32.61
2023-02-26T09:08:22.609Z,32.14
2023-02-26T09:10:51.020Z,31.42
2023-02-26T09:13:18.622Z,29.60
2023-02-26T09:15:45.555Z,28.54
2023-02-26T09:18:15.436Z,28.08
2023-02-26T09:20:42.967Z,27.28
2023-02-26T09:23:10.666Z,26.17
2023-02-26T09:25:38.875Z,25.92
2023-02-26T09:28:07.484Z,25.18
2023-02-26T09:30:34.495Z,25.31
2023-02-26T09:33:01.511Z,23.83
2023-02-26T09:35:28.585Z,24.07
2023-02-26T09:37:55.551Z,23.68
2023-02-26T09:40:36.773Z,23.36
2023-02-26T09:43:31.039Z,22.70
2023-02-26T09:46:05.942Z,21.92
2023-02-26T09:48:36.988Z,20.99
2023-02-26T09:51:08.207Z,20.26
2023-02-26T09:53:41.224Z,19.52
2023-02-26T09:56:16.596Z,19.52
2023-02-26T09:58:46.218Z,19.61
2023-02-26T10:01:22.371Z,18.31
2023-02-26T10:04:10.888Z,18.96
2023-02-26T10:06:53.090Z,19.04
2023-02-26T10:09:39.785Z,18.30
2023-02-26T10:12:12.098Z,18.54
2023-02-26T10:14:49.474Z,17.34
2023-02-26T10:17:23.005Z,17.77
2023-02-26T10:19:58.307Z,18.37
2023-02-26T10:22:35.421Z,18.41
2023-02-26T10:25:09.502Z,17.85
2023-02-26T10:27:55.282Z,18.71
2023-02-26T10:30:36.208Z,19.16
2023-02-26T10:33:17.734Z,19.06
2023-02-26T10:35:52.772Z,18.44
2023-02-26T10:38:25.289Z,18.42
2023-02-26T10:40:59.779Z,19.17
2023-02-26T10:43:32.570Z,19.60
2023-02-26T10:46:22.995Z,20.70
2023-02-26T10:49:24.598Z,21.60
2023-02-26T10:51:53.540Z,22.27
2023-02-26T10:54:27.710Z,22.43
2023-02-26T10:56:54.607Z,21.48
2023-02-26T10:59:21.739Z,22.23
2023-02-26T11:01:52.458Z,22.32
2023-02-26T11:04:23.857Z,22.66
2023-02-26T11:06:56.291Z,23.16
2023-02-26T11:09:28.742Z,22.94
2023-02-26T11:12:04.657Z,22.33
2023-02-26T11:14:33.410Z,22.62
2023-02-26T11:17:07.457Z,22.65
2023-02-26T11:19:39.646Z,22.46
2023-02-26T11:22:12.213Z,22.22
2023-02-26T11:24:46.279Z,22.61
2023-02-26T11:27:16.197Z,23.40
2023-02-26T11:29:48.263Z,24.37
2023-02-26T11:32:21.441Z,24.44
2023-02-26T11:34:51.866Z,25.02
2023-02-26T11:37:22.798Z,25.13
2023-02-26T11:39:57.914Z,24.59
2023-02-26T11:42:26.388Z,23.88
2023-02-26T11:44:54.795Z,23.40
2023-02-26T11:47:29.579Z,23.22
2023-02-26T11:50:05.391Z,23.39
2023-02-26T11:52:40.152Z,23.96
2023-02-26T11:55:21.554Z,24.26
2023-02-26T11:57:56.060Z,24.14
2023-02-26T12:00:31.026Z,24.15
2023-02-26T12:03:04.522Z,24.55
2023-02-26T12:05:31.983Z,24.44
2023-02-26T12:07:59.806Z,24.64
2023-02-26T12:10:40.116Z,24.81
2023-02-26T12:13:20.656Z,24.64
2023-02-26T12:15:57.085Z,24.46
2023-02-26T12:18:43.443Z,24.06
2023-02-26T12:21:39.810Z,23.19
2023-02-26T12:24:30.310Z,23.42
2023-02-26T12:27:04.579Z,23.33
2023-02-26T12:29:51.473Z,23.86
2023-02-26T12:32:47.722Z,24.57
2023-02-26T12:35:42.802Z,24.78
2023-02-26T12:38:21.523Z,24.80
2023-02-26T12:41:14.840Z,25.10
2023-02-26T12:43:48.887Z,25.74
2023-02-26T12:46:34.004Z,26.14
2023-02-26T12:49:23.383Z,26.11
2023-02-26T12:52:16.077Z,25.86
2023-02-26T12:55:09.376Z,24.85
2023-02-26T12:58:24.427Z,24.43
2023-02-26T13:01:10.036Z,23.72
2023-02-26T13:04:43.952Z,23.85
2023-02-26T13:07:50.981Z,24.25
2023-02-26T13:10:29.712Z,23.92
2023-02-26T13:13:16.446Z,23.26
2023-02-26T13:16:15.074Z,23.53
2023-02-26T13:18:56.766Z,23.65
2023-02-26T13:21:30.912Z,24.04
2023-02-26T13:24:06.900Z,24.32
2023-02-26T13:26:36.524Z,24.51
2023-02-26T13:29:09.530Z,24.70
2023-02-26T13:31:43.336Z,24.67
2023-02-26T13:34:18.985Z,24.88
2023-02-26T13:36:47.866Z,25.27
2023-02-26T13:39:36.631Z,25.70
2023-02-26T13:42:21.062Z,25.95
2023-02-26T13:45:07.752Z,26.34
2023-02-26T13:47:55.248Z,26.83
2023-02-26T13:50:35.538Z,26.78
2023-02-26T13:53:29.691Z,26.78
2023-02-26T13:56:13.179Z,26.91
2023-02-26T13:58:44.427Z,26.71
2023-02-26T14:01:17.568Z,26.52
2023-02-26T14:03:52.454Z,26.21
2023-02-26T14:06:37.694Z,26.83
2023-02-26T14:09:26.549Z,26.74
2023-02-26T14:12:22.625Z,27.29
2023-02-26T14:15:39.298Z,27.48
2023-02-26T14:18:20.247Z,27.80
2023-02-26T14:20:47.231Z,27.63
2023-02-26T14:23:36.494Z,27.32
2023-02-26T14:26:18.677Z,27.68
2023-02-26T14:28:58.552Z,27.80
2023-02-26T14:31:27.359Z,28.33
2023-02-26T14:34:15.204Z,28.53
2023-02-26T14:36:49.244Z,29.06
2023-02-26T14:39:29.399Z,29.15
2023-02-26T14:42:03.877Z,29.13
2023-02-26T14:44:40.062Z,29.19
2023-02-26T14:47:08.392Z,29.24
2023-02-26T14:49:40.071Z,29.04
2023-02-26T14:52:37.039Z,29.16
2023-02-26T14:55:27.352Z,29.49
2023-02-26T14:58:15.569Z,29.56
2023-02-26T15:00:55.752Z,29.74
2023-02-26T15:04:03.712Z,30.22
2023-02-26T15:06:51.799Z,30.54
2023-02-26T15:09:26.462Z,30.76
2023-02-26T15:12:26.557Z,31.36
2023-02-26T15:15:15.542Z,31.90
2023-02-26T15:18:18.128Z,31.92
2023-02-26T15:21:00.320Z,32.88
2023-02-26T15:23:42.046Z,32.86
2023-02-26T15:26:19.377Z,33.43
2023-02-26T15:28:47.806Z,33.05
2023-02-26T15:31:16.313Z,33.52
2023-02-26T15:33:47.854Z,33.03
2023-02-26T15:36:21.875Z,33.24
2023-02-26T15:38:54.935Z,33.20
2023-02-26T15:41:25.039Z,33.39
2023-02-26T15:43:57.122Z,32.96
2023-02-26T15:46:31.597Z,33.36
2023-02-26T15:49:07.379Z,33.15
2023-02-26T15:51:35.222Z,33.07
2023-02-26T15:54:03.733Z,33.26
2023-02-26T15:56:36.737Z,32.73
2023-02-26T15:59:09.503Z,33.15
2023-02-26T16:01:36.909Z,33.38
2023-02-26T16:04:13.268Z,33.19
2023-02-26T16:06:45.831Z,33.85
2023-02-26T16:09:25.399Z,33.37
2023-02-26T16:11:58.052Z,33.66
2023-02-26T16:14:29.880Z,33.71
2023-02-26T16:16:58.086Z,33.59
2023-02-26T16:19:36.083Z,34.03
2023-02-26T16:22:16.374Z,33.94
2023-02-26T16:24:44.665Z,34.07
2023-02-26T16:27:14.166Z,34.34
2023-02-26T16:29:51.749Z,34.60
2023-02-26T16:32:19.975Z,34.12
2023-02-26T16:34:53.433Z,34.25
2023-02-26T16:37:34.386Z,34.77
2023-02-26T16:40:19.872Z,34.87
2023-02-26T16:42:59.613Z,34.51
2023-02-26T16:45:49.410Z,34.66
2023-02-26T16:48:24.134Z,34.65
2023-02-26T16:50:58.475Z,34.55
2023-02-26T16:53:35.158Z,35.02
2023-02-26T16:56:04.280Z,34.63
2023-02-26T16:58:32.615Z,34.83
2023-02-26T17:01:09.066Z,35.13
2023-02-26T17:03:38.431Z,35.02
2023-02-26T17:06:11.644Z,34.73
2023-02-26T17:08:49.019Z,34.64
2023-02-26T17:11:25.444Z,34.76
2023-02-26T17:14:12.735Z,35.19
2023-02-26T17:16:40.231Z,34.78
2023-02-26T17:19:07.230Z,35.17
2023-02-26T17:21:43.313Z,35.16
2023-02-26T17:24:18.285Z,35.07
2023-02-26T17:26:47.661Z,35.12
2023-02-26T17:29:22.993Z,34.84
2023-02-26T17:31:50.845Z,35.18
2023-02-26T17:34:20.951Z,35.22
2023-02-26T17:36:49.759Z,35.74
2023-02-26T17:39:16.618Z,35.82
2023-02-26T17:41:45.152Z,35.49
2023-02-26T17:44:12.361Z,35.78
2023-02-26T17:46:39.508Z,35.54
2023-02-26T17:49:06.976Z,35.37
2023-02-26T17:51:33.855Z,35.60
2023-02-26T17:54:02.297Z,35.97
2023-02-26T17:56:34.321Z,35.40
2023-02-26T17:59:02.239Z,35.52
2023-02-26T18:01:30.013Z,35.57
2023-02-26T18:03:57.852Z,35.60
2023-02-26T18:06:25.752Z,36.32
2023-02-26T18:08:54.188Z,36.46
2023-02-26T18:11:25.839Z,36.54
2023-02-26T18:13:55.159Z,36.67
2023-02-26T18:16:29.227Z,36.77
2023-02-26T18:18:56.112Z,36.64
2023-02-26T18:21:23.095Z,36.56
2023-02-26T18:23:50.267Z,37.18
2023-02-26T18:26:22.793Z,37.05
2023-02-26T18:28:51.328Z,37.00
2023-02-26T18:31:20.015Z,37.57
2023-02-26T18:33:47.510Z,37.66
2023-02-26T18:36:23.906Z,37.40
2023-02-26T18:38:51.086Z,37.37
2023-02-26T18:41:18.931Z,38.20
2023-02-26T18:43:47.148Z,37.85
2023-02-26T18:46:14.255Z,37.85
2023-02-26T18:48:41.213Z,37.62
2023-02-26T18:51:08.361Z,37.73
2023-02-26T18:53:35.365Z,37.70
2023-02-26T18:56:02.647Z,38.18
2023-02-26T18:58:29.902Z,38.81
2023-02-26T19:00:59.232Z,38.97
2023-02-26T19:03:26.611Z,38.66
2023-02-26T19:05:58.200Z,38.96
2023-02-26T19:08:25.624Z,39.17
2023-02-26T19:10:52.807Z,39.52
2023-02-26T19:13:19.728Z,38.88
2023-02-26T19:15:46.824Z,39.46
2023-02-26T19:18:15.114Z,39.57
2023-02-26T19:20:42.392Z,39.49
2023-02-26T19:23:09.497Z,39.63
2023-02-26T19:25:37.716Z,39.40
2023-02-26T19:28:05.491Z,39.77
2023-02-26T19:30:34.470Z,39.29
2023-02-26T19:33:02.224Z,39.56
2023-02-26T19:35:30.720Z,39.57
2023-02-26T19:37:57.927Z,39.40
2023-02-26T19:40:25.225Z,39.68
2023-02-26T19:42:52.161Z,39.70
2023-02-26T19:45:19.381Z,40.01
2023-02-26T19:47:46.709Z,39.98
2023-02-26T19:50:14.337Z,40.34
2023-02-26T19:52:43.049Z,40.00
2023-02-26T19:55:11.167Z,40.53
2023-02-26T19:57:38.379Z,40.49
2023-02-26T20:00:07.132Z,40.43
2023-02-26T20:02:34.472Z,40.67
2023-02-26T20:05:01.467Z,40.30
2023-02-26T20:07:28.518Z,40.15
2023-02-26T20:09:56.977Z,40.06
2023-02-26T20:12:23.863Z,40.25
2023-02-26T20:14:51.185Z,40.53
2023-02-26T20:17:18.436Z,40.86
2023-02-26T20:19:46.342Z,41.10
2023-02-26T20:22:13.291Z,41.39
2023-02-26T20:24:41.156Z,41.30
2023-02-26T20:27:09.692Z,41.27
2023-02-26T20:29:36.859Z,41.55
2023-02-26T20:32:04.997Z,41.44
2023-02-26T20:34:32.188Z,41.52
2023-02-26T20:36:59.391Z,41.07
2023-02-26T20:39:26.436Z,41.06
2023-02-26T20:41:53.631Z,40.90
2023-02-26T20:44:21.862Z,40.55
2023-02-26T20:46:49.277Z,40.61
2023-02-26T20:49:17.244Z,40.30
2023-02-26T20:51:44.590Z,41.24
2023-02-26T20:54:17.568Z,41.31
2023-02-26T20:56:45.172Z,41.67
2023-02-26T20:59:12.318Z,41.76
2023-02-26T21:01:40.949Z,42.00
2023-02-26T21:04:09.468Z,40.86
2023-02-26T21:06:37.588Z,40.48
2023-02-26T21:09:06.681Z,40.78
2023-02-26T21:11:36.630Z,40.73
2023-02-26T21:14:07.410Z,41.10
2023-02-26T21:16:35.726Z,41.30
2023-02-26T21:19:04.452Z,41.45
2023-02-26T21:21:31.799Z,41.61
2023-02-26T21:23:58.856Z,41.50
2023-02-26T21:26:27.526Z,41.49
2023-02-26T21:28:54.629Z,42.66
2023-02-26T21:31:21.940Z,42.81
2023-02-26T21:33:49.245Z,42.58
2023-02-26T21:36:17.545Z,42.00
2023-02-26T21:38:44.698Z,42.39
2023-02-26T21:41:11.676Z,42.61
2023-02-26T21:43:39.247Z,42.39
2023-02-26T21:46:06.564Z,41.93
2023-02-26T21:48:33.542Z,42.62
2023-02-26T21:51:00.753Z,42.85
2023-02-26T21:53:29.103Z,42.34
2023-02-26T21:55:56.739Z,42.09
2023-02-26T21:58:24.085Z,42.41
2023-02-26T22:00:51.676Z,42.48
2023-02-26T22:03:18.696Z,42.32
2023-02-26T22:05:45.578Z,42.54
2023-02-26T22:08:12.573Z,43.04
2023-02-26T22:10:40.852Z,43.30
2023-02-26T22:13:07.800Z,43.30
2023-02-26T22:15:34.992Z,43.24
2023-02-26T22:18:02.018Z,43.07
2023-02-26T22:20:30.160Z,42.84
2023-02-26T22:22:57.408Z,43.16
2023-02-26T22:25:24.536Z,43.60
2023-02-26T22:27:52.792Z,43.09
2023-02-26T22:30:19.720Z,43.81
2023-02-26T22:32:47.242Z,43.81
2023-02-26T22:35:14.356Z,44.20
2023-02-26T22:37:42.193Z,44.59
2023-02-26T22:40:12.614Z,44.13
2023-02-26T22:42:41.050Z,43.96
2023-02-26T22:45:17.106Z,44.12
2023-02-26T22:47:44.535Z,44.00
2023-02-26T22:50:13.083Z,44.77
2023-02-26T22:52:40.744Z,43.70
2023-02-26T22:55:10.273Z,43.80
2023-02-26T22:57:37.368Z,44.43
2023-02-26T23:00:08.883Z,43.59
2023-02-26T23:02:38.833Z,43.53
2023-02-26T23:05:06.976Z,43.01
2023-02-26T23:07:34.009Z,42.89
2023-02-26T23:10:01.384Z,43.27
2023-02-26T23:12:28.398Z,43.08
2023-02-26T23:14:55.532Z,43.70
2023-02-26T23:17:22.476Z,43.51
2023-02-26T23:19:50.722Z,43.61
2023-02-26T23:22:17.755Z,43.45
2023-02-26T23:24:46.249Z,43.64
2023-02-26T23:27:13.368Z,43.61
2023-02-26T23:29:46.479Z,43.37
2023-02-26T23:32:15.077Z,44.13
2023-02-26T23:34:42.186Z,44.15
2023-02-26T23:37:10.587Z,44.25
2023-02-26T23:39:37.500Z,43.81
2023-02-26T23:42:04.704Z,44.23
2023-02-26T23:44:31.978Z,44.13
2023-02-26T23:46:59.455Z,44.21
2023-02-26T23:49:26.387Z,44.91
2023-02-26T23:51:53.322Z,44.55
2023-02-26T23:54:21.574Z,45.88
2023-02-26T23:56:48.472Z,45.54
2023-02-26T23:59:17.742Z,45.64
